»·PEaware :: JZA016 KPHX-KSAN

JZA016 :: KPHX-KSAN

FLIGHT INFORMATION

Flight Status: Arrived
Operator:
Air Canada Jazz
More flights by this operator :: More flights under this callsign
Pilot: Mike G. (11411)
Aircraft: CANADAIR CL-600 CRJ-900
(CRJ9)
More flights by this aircraft type
Origin: KPHX Phoenix Sky Harbor Intl
United States
Destination: KSAN San Diego Intl-Lindbergh
United States
More flights between these airports :: More routes between these airports
Route: FYRBD1 MOHAK J2 HOGGZ LUCKI1
File this flight plan on PilotEdge
Remarks: RMK / SIMBRIEF
Altitude:
(Current/Filed)
36,000ft
Speed:
(Current/Filed)
437kts
Departed: 14-Jun-19 12:50 PM
Arrived: 14-Jun-19 01:39 PM
Distance/Time
Traveled:
264nm/0:49
Distance/Time
To Go:
Arrived

Flight Plot

Page will automatically refresh every two minutes.

Flight plan parsing failed; only flown route is shown


Map Options




Map Legend


Flown Route
Filed Route
Departure Airport
Arrival Airport
Navaid (VOR, NDB)
Fix

Horizontal Profiles

Position Reports

Time Latitude Longitude Heading Altitude Ground
Speed
14-Jun-19 12:10 33.681151 -117.860869 116 63ft 0kts
14-Jun-19 12:11 33.681151 -117.860869 116 63ft 0kts
14-Jun-19 12:12 33.681151 -117.860869 116 63ft 0kts
14-Jun-19 12:13 33.437519 -112.001212 269 1157ft 0kts
14-Jun-19 12:14 33.437519 -112.001212 269 1142ft 0kts
14-Jun-19 12:15 33.437519 -112.001212 269 1142ft 0kts
14-Jun-19 12:16 33.437519 -112.001212 269 1142ft 0kts
14-Jun-19 12:17 33.437519 -112.001212 269 1142ft 0kts
14-Jun-19 12:18 33.437519 -112.001212 269 1142ft 0kts
14-Jun-19 12:19 33.437519 -112.001212 269 1142ft 0kts
14-Jun-19 12:20 33.437519 -112.001212 269 1142ft 0kts
14-Jun-19 12:21 33.437519 -112.001212 269 1142ft 0kts
14-Jun-19 12:22 33.437519 -112.001212 269 1142ft 0kts
14-Jun-19 12:23 33.437519 -112.001212 269 1142ft 0kts
14-Jun-19 12:24 33.437519 -112.001212 269 1142ft 0kts
14-Jun-19 12:25 33.437519 -112.001212 269 1142ft 0kts
14-Jun-19 12:26 33.437519 -112.001212 269 1142ft 0kts
14-Jun-19 12:27 33.437519 -112.001212 269 1142ft 0kts
14-Jun-19 12:28 33.437519 -112.001212 269 1142ft 0kts
14-Jun-19 12:29 33.437519 -112.001212 269 1142ft 0kts
14-Jun-19 12:30 33.437519 -112.001212 269 1142ft 0kts
14-Jun-19 12:31 33.437519 -112.001212 269 1142ft 0kts
14-Jun-19 12:32 33.437519 -112.001212 269 1142ft 0kts
14-Jun-19 12:33 33.437519 -112.001212 269 1142ft 0kts
14-Jun-19 12:34 33.437519 -112.001212 269 1142ft 0kts
14-Jun-19 12:35 33.437523 -112.000482 269 1142ft 0kts
14-Jun-19 12:36 33.437523 -112.000482 269 1142ft 0kts
14-Jun-19 12:37 33.437523 -112.000482 269 1142ft 0kts
14-Jun-19 12:38 33.437523 -112.000482 269 1142ft 0kts
14-Jun-19 12:39 33.437523 -112.000482 269 1142ft 0kts
14-Jun-19 12:40 33.437523 -112.000482 269 1142ft 0kts
14-Jun-19 12:41 33.437988 -112.000734 356 1142ft 4kts
14-Jun-19 12:42 33.438011 -112.000736 356 1142ft 0kts
14-Jun-19 12:43 33.438947 -111.999548 90 1142ft 11kts
14-Jun-19 12:44 33.438932 -111.994661 91 1142ft 15kts
14-Jun-19 12:45 33.439744 -111.992339 1 1142ft 7kts
14-Jun-19 12:46 33.440055 -111.992335 0 1142ft 0kts
14-Jun-19 12:47 33.440254 -111.992336 359 1142ft 6kts
14-Jun-19 12:48 33.440819 -111.992969 270 1142ft 0kts
14-Jun-19 12:49 33.440832 -112.004865 270 1142ft 137kts
14-Jun-19 12:50 33.433127 -112.065218 246 3777ft 212kts
14-Jun-19 12:51 33.404703 -112.141019 250 6100ft 277kts
14-Jun-19 12:52 33.343581 -112.181422 167 9018ft 290kts
14-Jun-19 12:53 33.268942 -112.148056 180 11489ft 313kts
14-Jun-19 12:54 33.212082 -112.222127 268 13437ft 354kts
14-Jun-19 12:55 33.183799 -112.333249 226 15372ft 389kts
14-Jun-19 12:56 33.110173 -112.434387 235 17861ft 411kts
14-Jun-19 12:57 33.040463 -112.545143 233 20351ft 425kts
14-Jun-19 12:58 32.967360 -112.658865 239 22565ft 437kts
14-Jun-19 12:59 32.938615 -112.797659 267 24718ft 435kts
14-Jun-19 13:00 32.921014 -112.937928 260 27198ft 426kts
14-Jun-19 13:01 32.902092 -113.075816 262 28999ft 425kts
14-Jun-19 13:02 32.882481 -113.217678 262 30298ft 431kts
14-Jun-19 13:03 32.863119 -113.357842 261 31785ft 429kts
14-Jun-19 13:04 32.843519 -113.497380 261 33077ft 426kts
14-Jun-19 13:05 32.823955 -113.635689 261 34144ft 425kts
14-Jun-19 13:06 32.795876 -113.770833 253 35214ft 422kts
14-Jun-19 13:07 32.774594 -113.906367 263 35837ft 419kts
14-Jun-19 13:08 32.769698 -114.046804 274 35845ft 434kts
14-Jun-19 13:10 32.779019 -114.191090 273 35842ft 437kts
14-Jun-19 13:11 32.784854 -114.333311 273 35840ft 424kts
14-Jun-19 13:12 32.807007 -114.467124 291 35842ft 410kts
14-Jun-19 13:13 32.844999 -114.593071 286 35833ft 398kts
14-Jun-19 13:14 32.877958 -114.718857 283 35815ft 402kts
14-Jun-19 13:15 32.876519 -114.852798 264 35808ft 413kts
14-Jun-19 13:16 32.873664 -114.990960 269 35805ft 423kts
14-Jun-19 13:17 32.869995 -115.132372 268 35803ft 433kts
14-Jun-19 13:18 32.866581 -115.276943 268 35787ft 441kts
14-Jun-19 13:19 32.855857 -115.418830 259 33841ft 415kts
14-Jun-19 13:20 32.834269 -115.549409 259 30356ft 391kts
14-Jun-19 13:21 32.813976 -115.672699 258 26859ft 368kts
14-Jun-19 13:22 32.795071 -115.788365 258 23354ft 346kts
14-Jun-19 13:23 32.780337 -115.898811 265 19857ft 333kts
14-Jun-19 13:24 32.773557 -116.007154 264 16352ft 324kts
14-Jun-19 13:25 32.765419 -116.112553 263 13336ft 317kts
14-Jun-19 13:26 32.757410 -116.215542 263 11888ft 310kts
14-Jun-19 13:27 32.749341 -116.320331 263 11914ft 326kts
14-Jun-19 13:27 32.742732 -116.405428 264 10843ft 295kts
14-Jun-19 13:29 32.734253 -116.513193 263 9943ft 269kts
14-Jun-19 13:30 32.725329 -116.604884 263 8814ft 293kts
14-Jun-19 13:30 32.717918 -116.682989 264 7956ft 271kts
14-Jun-19 13:32 32.710354 -116.783302 264 6783ft 249kts
14-Jun-19 13:32 32.700234 -116.847822 248 5922ft 227kts
14-Jun-19 13:33 32.677399 -116.915232 252 5025ft 215kts
14-Jun-19 13:34 32.683570 -116.984400 289 4986ft 225kts
14-Jun-19 13:35 32.701715 -117.059194 286 4828ft 244kts
14-Jun-19 13:36 32.718510 -117.127607 286 2715ft 188kts
14-Jun-19 13:37 32.731988 -117.183171 285 51ft 146kts
14-Jun-19 13:38 32.735621 -117.202417 189 22ft 1kts

Navigation Log

Ident Type
Flight plan parsing failed, navigation log unavailable